Tarlton, Ohio
Current Conditions -  °F | °C
As of 3:53 PM on Tuesday 27 Jan 2015 (Local Time) from KLHQ Reporting Station
Overcast Overcast  
Wind Chill: 14°   Ceiling: 2300
Heat Index: 23°   Visibility: 10mi
Dew Point: 14°   Wind: 8mph
Humidity: 68%   Direction: 360°N
Pressure: 30.08"   Gusts: NA
Location:  39.56°N, 82.78°W
Report Text: KLHQ 272053Z AUTO 36007KT 10SM OVC023 M05/M10 A3008 RMK AO2 SLP202 T10501100 53009
Loading
Personal Weather Stations






























Interactive Weather Map New forecast layout! Learn more

10-Day Weather Forecast

Advertisements
Track Severe Weather on mobile